sensor_id;sensor_type;location;lat;lon;timestamp;pressure;altitude;pressure_sealevel;temperature;humidity
71149;BME280;59072;42.144;25.200;2023-05-20T00:00:13;100257.91;;;14.15;100.00
71149;BME280;59072;42.144;25.200;2023-05-20T00:02:38;100276.41;;;14.28;100.00
71149;BME280;59072;42.144;25.200;2023-05-20T00:05:04;100279.13;;;14.16;100.00
71149;BME280;59072;42.144;25.200;2023-05-20T00:07:30;100287.28;;;14.21;100.00
71149;BME280;59072;42.144;25.200;2023-05-20T00:09:56;100280.31;;;14.09;100.00
71149;BME280;59072;42.144;25.200;2023-05-20T00:12:21;100273.06;;;14.09;100.00
71149;BME280;59072;42.144;25.200;2023-05-20T00:14:46;100277.13;;;14.12;100.00
71149;BME280;59072;42.144;25.200;2023-05-20T00:17:12;100271.31;;;14.15;100.00
71149;BME280;59072;42.144;25.200;2023-05-20T00:19:37;100257.09;;;14.14;100.00
71149;BME280;59072;42.144;25.200;2023-05-20T00:22:03;100267.72;;;14.09;100.00
71149;BME280;59072;42.144;25.200;2023-05-20T00:24:28;100262.94;;;13.99;100.00
71149;BME280;59072;42.144;25.200;2023-05-20T00:26:54;100248.16;;;13.97;100.00
71149;BME280;59072;42.144;25.200;2023-05-20T00:29:20;100258.72;;;14.15;100.00
71149;BME280;59072;42.144;25.200;2023-05-20T00:31:46;100245.91;;;14.05;100.00
71149;BME280;59072;42.144;25.200;2023-05-20T00:34:12;100252.44;;;14.10;100.00
71149;BME280;59072;42.144;25.200;2023-05-20T00:36:37;100247.19;;;14.15;100.00
71149;BME280;59072;42.144;25.200;2023-05-20T00:39:03;100239.72;;;14.17;100.00
71149;BME280;59072;42.144;25.200;2023-05-20T00:41:28;100238.22;;;13.97;100.00
71149;BME280;59072;42.144;25.200;2023-05-20T00:43:54;100239.44;;;13.90;100.00
71149;BME280;59072;42.144;25.200;2023-05-20T00:46:22;100234.09;;;13.78;100.00
71149;BME280;59072;42.144;25.200;2023-05-20T00:48:48;100234.06;;;13.90;100.00
71149;BME280;59072;42.144;25.200;2023-05-20T00:51:14;100239.31;;;13.84;100.00
71149;BME280;59072;42.144;25.200;2023-05-20T00:53:40;100218.59;;;13.68;100.00
71149;BME280;59072;42.144;25.200;2023-05-20T00:56:07;100233.41;;;13.71;100.00
71149;BME280;59072;42.144;25.200;2023-05-20T00:58:34;100250.47;;;13.93;100.00
71149;BME280;59072;42.144;25.200;2023-05-20T01:01:01;100247.13;;;13.86;100.00
71149;BME280;59072;42.144;25.200;2023-05-20T01:03:27;100234.34;;;13.64;100.00
71149;BME280;59072;42.144;25.200;2023-05-20T01:05:53;100252.00;;;14.01;100.00
71149;BME280;59072;42.144;25.200;2023-05-20T01:08:19;100258.00;;;14.20;100.00
71149;BME280;59072;42.144;25.200;2023-05-20T01:10:46;100234.75;;;13.85;100.00
71149;BME280;59072;42.144;25.200;2023-05-20T01:13:14;100247.84;;;13.70;100.00
71149;BME280;59072;42.144;25.200;2023-05-20T01:15:41;100244.81;;;13.54;100.00
71149;BME280;59072;42.144;25.200;2023-05-20T01:18:08;100244.03;;;13.54;100.00
71149;BME280;59072;42.144;25.200;2023-05-20T01:20:35;100229.22;;;13.51;100.00
71149;BME280;59072;42.144;25.200;2023-05-20T01:23:02;100244.25;;;13.76;100.00
71149;BME280;59072;42.144;25.200;2023-05-20T01:25:28;100229.47;;;13.50;100.00
71149;BME280;59072;42.144;25.200;2023-05-20T01:27:55;100235.75;;;13.55;100.00
71149;BME280;59072;42.144;25.200;2023-05-20T01:30:38;100231.78;;;13.70;100.00
71149;BME280;59072;42.144;25.200;2023-05-20T01:33:08;100228.16;;;13.76;100.00
71149;BME280;59072;42.144;25.200;2023-05-20T01:35:35;100229.81;;;13.65;100.00
71149;BME280;59072;42.144;25.200;2023-05-20T01:38:02;100228.88;;;13.48;100.00
71149;BME280;59072;42.144;25.200;2023-05-20T01:40:29;100229.72;;;13.36;100.00
71149;BME280;59072;42.144;25.200;2023-05-20T01:42:57;100233.06;;;13.32;100.00
71149;BME280;59072;42.144;25.200;2023-05-20T01:45:24;100219.88;;;13.18;100.00
71149;BME280;59072;42.144;25.200;2023-05-20T01:47:50;100228.38;;;13.15;100.00
71149;BME280;59072;42.144;25.200;2023-05-20T01:50:16;100232.50;;;13.30;100.00
71149;BME280;59072;42.144;25.200;2023-05-20T01:52:41;100233.38;;;13.23;100.00
71149;BME280;59072;42.144;25.200;2023-05-20T01:55:07;100229.19;;;13.27;100.00
71149;BME280;59072;42.144;25.200;2023-05-20T01:57:32;100229.56;;;13.66;100.00
71149;BME280;59072;42.144;25.200;2023-05-20T01:59:58;100215.00;;;13.62;100.00
71149;BME280;59072;42.144;25.200;2023-05-20T02:02:23;100226.97;;;13.83;100.00
71149;BME280;59072;42.144;25.200;2023-05-20T02:04:50;100224.53;;;13.82;100.00
71149;BME280;59072;42.144;25.200;2023-05-20T02:07:16;100232.56;;;13.82;100.00
71149;BME280;59072;42.144;25.200;2023-05-20T02:09:45;100246.22;;;13.69;100.00
71149;BME280;59072;42.144;25.200;2023-05-20T02:12:12;100244.34;;;13.81;100.00
71149;BME280;59072;42.144;25.200;2023-05-20T02:14:45;100244.47;;;13.74;100.00
71149;BME280;59072;42.144;25.200;2023-05-20T02:17:15;100250.59;;;13.98;100.00
71149;BME280;59072;42.144;25.200;2023-05-20T02:19:41;100251.09;;;13.83;100.00
71149;BME280;59072;42.144;25.200;2023-05-20T02:22:06;100250.53;;;13.81;100.00
71149;BME280;59072;42.144;25.200;2023-05-20T02:24:32;100244.22;;;13.88;100.00
71149;BME280;59072;42.144;25.200;2023-05-20T02:26:57;100248.88;;;13.92;100.00
71149;BME280;59072;42.144;25.200;2023-05-20T02:29:24;100251.56;;;13.92;100.00
71149;BME280;59072;42.144;25.200;2023-05-20T02:31:49;100247.91;;;13.98;100.00
71149;BME280;59072;42.144;25.200;2023-05-20T02:34:16;100256.91;;;14.04;100.00
71149;BME280;59072;42.144;25.200;2023-05-20T02:36:42;100250.84;;;13.85;100.00
71149;BME280;59072;42.144;25.200;2023-05-20T02:39:07;100252.22;;;13.99;100.00
71149;BME280;59072;42.144;25.200;2023-05-20T02:41:33;100247.91;;;13.98;100.00
71149;BME280;59072;42.144;25.200;2023-05-20T02:43:58;100250.03;;;13.84;100.00
71149;BME280;59072;42.144;25.200;2023-05-20T02:46:24;100257.88;;;13.74;100.00
71149;BME280;59072;42.144;25.200;2023-05-20T02:48:50;100250.91;;;13.61;100.00
71149;BME280;59072;42.144;25.200;2023-05-20T02:51:15;100258.34;;;13.59;100.00
71149;BME280;59072;42.144;25.200;2023-05-20T02:53:41;100263.72;;;13.59;100.00
71149;BME280;59072;42.144;25.200;2023-05-20T02:56:06;100255.19;;;13.74;100.00
71149;BME280;59072;42.144;25.200;2023-05-20T02:58:33;100258.81;;;13.80;100.00
71149;BME280;59072;42.144;25.200;2023-05-20T03:01:00;100256.25;;;13.61;100.00
71149;BME280;59072;42.144;25.200;2023-05-20T03:03:26;100259.75;;;13.74;100.00
71149;BME280;59072;42.144;25.200;2023-05-20T03:05:52;100254.38;;;13.74;100.00
71149;BME280;59072;42.144;25.200;2023-05-20T03:08:19;100260.53;;;13.74;100.00
71149;BME280;59072;42.144;25.200;2023-05-20T03:10:45;100265.53;;;13.82;100.00
71149;BME280;59072;42.144;25.200;2023-05-20T03:13:10;100237.72;;;13.60;100.00
71149;BME280;59072;42.144;25.200;2023-05-20T03:15:40;100262.19;;;13.75;100.00
71149;BME280;59072;42.144;25.200;2023-05-20T03:18:06;100262.09;;;13.35;100.00
71149;BME280;59072;42.144;25.200;2023-05-20T03:20:35;100249.94;;;13.20;100.00
71149;BME280;59072;42.144;25.200;2023-05-20T03:23:02;100246.00;;;13.35;100.00
71149;BME280;59072;42.144;25.200;2023-05-20T03:25:28;100256.56;;;13.18;100.00
71149;BME280;59072;42.144;25.200;2023-05-20T03:27:54;100255.31;;;13.44;100.00
71149;BME280;59072;42.144;25.200;2023-05-20T03:30:19;100266.25;;;13.54;100.00
71149;BME280;59072;42.144;25.200;2023-05-20T03:32:45;100251.47;;;13.63;100.00
71149;BME280;59072;42.144;25.200;2023-05-20T03:35:11;100260.56;;;13.51;100.00
71149;BME280;59072;42.144;25.200;2023-05-20T03:37:37;100256.59;;;13.53;100.00
71149;BME280;59072;42.144;25.200;2023-05-20T03:40:02;100258.47;;;13.53;100.00
71149;BME280;59072;42.144;25.200;2023-05-20T03:42:33;100256.94;;;13.69;100.00
71149;BME280;59072;42.144;25.200;2023-05-20T03:44:59;100258.69;;;13.39;100.00
71149;BME280;59072;42.144;25.200;2023-05-20T03:47:25;100258.81;;;13.56;100.00
71149;BME280;59072;42.144;25.200;2023-05-20T03:49:51;100253.56;;;13.73;100.00
71149;BME280;59072;42.144;25.200;2023-05-20T03:52:17;100252.88;;;13.54;100.00
71149;BME280;59072;42.144;25.200;2023-05-20T03:54:42;100262.88;;;13.71;100.00
71149;BME280;59072;42.144;25.200;2023-05-20T03:57:07;100268.34;;;13.76;100.00
71149;BME280;59072;42.144;25.200;2023-05-20T03:59:35;100261.34;;;13.75;100.00
71149;BME280;59072;42.144;25.200;2023-05-20T04:02:01;100259.63;;;13.69;100.00
71149;BME280;59072;42.144;25.200;2023-05-20T04:04:26;100259.03;;;13.78;100.00
71149;BME280;59072;42.144;25.200;2023-05-20T04:06:52;100273.06;;;14.21;100.00
71149;BME280;59072;42.144;25.200;2023-05-20T04:09:20;100269.75;;;14.31;100.00
71149;BME280;59072;42.144;25.200;2023-05-20T04:11:46;100268.81;;;14.37;100.00
71149;BME280;59072;42.144;25.200;2023-05-20T04:14:11;100279.63;;;14.42;100.00
71149;BME280;59072;42.144;25.200;2023-05-20T04:16:39;100284.88;;;14.49;100.00
71149;BME280;59072;42.144;25.200;2023-05-20T04:19:05;100290.69;;;14.57;100.00
71149;BME280;59072;42.144;25.200;2023-05-20T04:21:31;100293.00;;;14.65;100.00
71149;BME280;59072;42.144;25.200;2023-05-20T04:23:56;100287.66;;;14.82;100.00
71149;BME280;59072;42.144;25.200;2023-05-20T04:26:22;100287.31;;;14.79;100.00
71149;BME280;59072;42.144;25.200;2023-05-20T04:28:47;100288.97;;;14.97;100.00
71149;BME280;59072;42.144;25.200;2023-05-20T04:31:13;100291.09;;;15.12;100.00
71149;BME280;59072;42.144;25.200;2023-05-20T04:33:39;100279.25;;;15.24;100.00
71149;BME280;59072;42.144;25.200;2023-05-20T04:36:06;100284.78;;;15.35;100.00
71149;BME280;59072;42.144;25.200;2023-05-20T04:38:32;100286.53;;;15.46;100.00
71149;BME280;59072;42.144;25.200;2023-05-20T04:40:58;100282.72;;;15.42;100.00
71149;BME280;59072;42.144;25.200;2023-05-20T04:43:25;100281.03;;;15.02;100.00
71149;BME280;59072;42.144;25.200;2023-05-20T04:45:54;100297.31;;;15.12;100.00
71149;BME280;59072;42.144;25.200;2023-05-20T04:48:20;100298.56;;;14.93;100.00
71149;BME280;59072;42.144;25.200;2023-05-20T04:50:49;100293.88;;;15.00;100.00
71149;BME280;59072;42.144;25.200;2023-05-20T04:53:17;100297.38;;;15.17;100.00
71149;BME280;59072;42.144;25.200;2023-05-20T04:55:44;100289.97;;;15.24;100.00
71149;BME280;59072;42.144;25.200;2023-05-20T04:58:09;100290.47;;;15.55;100.00
71149;BME280;59072;42.144;25.200;2023-05-20T05:00:42;100297.22;;;15.58;100.00
71149;BME280;59072;42.144;25.200;2023-05-20T05:03:08;100303.81;;;15.84;100.00
71149;BME280;59072;42.144;25.200;2023-05-20T05:05:34;100294.31;;;15.98;100.00
71149;BME280;59072;42.144;25.200;2023-05-20T05:08:04;100299.38;;;15.95;100.00
71149;BME280;59072;42.144;25.200;2023-05-20T05:10:33;100288.75;;;16.05;100.00
71149;BME280;59072;42.144;25.200;2023-05-20T05:12:58;100291.88;;;16.19;100.00
71149;BME280;59072;42.144;25.200;2023-05-20T05:15:24;100293.56;;;16.25;100.00
71149;BME280;59072;42.144;25.200;2023-05-20T05:17:50;100300.25;;;16.44;100.00
71149;BME280;59072;42.144;25.200;2023-05-20T05:20:16;100299.78;;;16.53;100.00
71149;BME280;59072;42.144;25.200;2023-05-20T05:22:42;100307.94;;;16.58;100.00
71149;BME280;59072;42.144;25.200;2023-05-20T05:25:08;100288.44;;;16.73;100.00
71149;BME280;59072;42.144;25.200;2023-05-20T05:27:34;100297.38;;;16.78;100.00
71149;BME280;59072;42.144;25.200;2023-05-20T05:30:01;100300.22;;;16.94;100.00
71149;BME280;59072;42.144;25.200;2023-05-20T05:32:26;100305.22;;;17.07;100.00
71149;BME280;59072;42.144;25.200;2023-05-20T05:34:52;100313.91;;;17.14;100.00
71149;BME280;59072;42.144;25.200;2023-05-20T05:37:18;100314.25;;;17.23;100.00
71149;BME280;59072;42.144;25.200;2023-05-20T05:39:43;100316.63;;;17.19;100.00
71149;BME280;59072;42.144;25.200;2023-05-20T05:42:08;100311.22;;;17.14;99.99
71149;BME280;59072;42.144;25.200;2023-05-20T05:44:34;100303.00;;;16.99;100.00
71149;BME280;59072;42.144;25.200;2023-05-20T05:46:59;100306.84;;;17.08;100.00
71149;BME280;59072;42.144;25.200;2023-05-20T05:49:25;100312.75;;;17.05;100.00
71149;BME280;59072;42.144;25.200;2023-05-20T05:51:50;100319.91;;;17.21;98.78
71149;BME280;59072;42.144;25.200;2023-05-20T05:54:15;100291.06;;;17.22;100.00
71149;BME280;59072;42.144;25.200;2023-05-20T05:56:41;100305.13;;;17.66;100.00
71149;BME280;59072;42.144;25.200;2023-05-20T05:59:06;100318.94;;;17.75;98.48
71149;BME280;59072;42.144;25.200;2023-05-20T06:01:32;100303.16;;;17.57;96.38
71149;BME280;59072;42.144;25.200;2023-05-20T06:03:58;100307.84;;;17.34;100.00
71149;BME280;59072;42.144;25.200;2023-05-20T06:06:23;100310.06;;;17.42;100.00
71149;BME280;59072;42.144;25.200;2023-05-20T06:08:49;100303.31;;;17.40;100.00
71149;BME280;59072;42.144;25.200;2023-05-20T06:11:14;100310.94;;;17.48;100.00
71149;BME280;59072;42.144;25.200;2023-05-20T06:13:40;100321.25;;;17.56;100.00
71149;BME280;59072;42.144;25.200;2023-05-20T06:16:05;100318.78;;;17.50;100.00
71149;BME280;59072;42.144;25.200;2023-05-20T06:18:30;100322.59;;;17.59;100.00
71149;BME280;59072;42.144;25.200;2023-05-20T06:20:57;100307.13;;;17.44;100.00
71149;BME280;59072;42.144;25.200;2023-05-20T06:23:23;100330.75;;;17.64;100.00
71149;BME280;59072;42.144;25.200;2023-05-20T06:25:49;100321.00;;;17.63;100.00
71149;BME280;59072;42.144;25.200;2023-05-20T06:28:14;100301.38;;;17.73;100.00
71149;BME280;59072;42.144;25.200;2023-05-20T06:30:40;100316.06;;;17.87;100.00
71149;BME280;59072;42.144;25.200;2023-05-20T06:33:06;100308.56;;;17.94;100.00
71149;BME280;59072;42.144;25.200;2023-05-20T06:35:31;100312.56;;;17.86;99.52
71149;BME280;59072;42.144;25.200;2023-05-20T06:38:00;100305.38;;;18.02;97.81
71149;BME280;59072;42.144;25.200;2023-05-20T06:40:26;100303.72;;;18.01;99.65
71149;BME280;59072;42.144;25.200;2023-05-20T06:42:52;100300.03;;;18.13;100.00
71149;BME280;59072;42.144;25.200;2023-05-20T06:45:17;100281.69;;;18.15;99.24
71149;BME280;59072;42.144;25.200;2023-05-20T06:47:43;100297.19;;;18.45;98.71
71149;BME280;59072;42.144;25.200;2023-05-20T06:50:09;100291.00;;;18.65;95.49
71149;BME280;59072;42.144;25.200;2023-05-20T06:52:35;100281.03;;;18.65;97.46
71149;BME280;59072;42.144;25.200;2023-05-20T06:55:00;100289.47;;;19.05;94.82
71149;BME280;59072;42.144;25.200;2023-05-20T06:57:26;100306.19;;;19.63;90.51
71149;BME280;59072;42.144;25.200;2023-05-20T06:59:51;100304.56;;;19.83;86.25
71149;BME280;59072;42.144;25.200;2023-05-20T07:02:17;100300.66;;;20.20;86.45
71149;BME280;59072;42.144;25.200;2023-05-20T07:04:42;100304.91;;;20.36;86.13
71149;BME280;59072;42.144;25.200;2023-05-20T07:07:08;100304.84;;;20.52;82.31
71149;BME280;59072;42.144;25.200;2023-05-20T07:09:33;100302.06;;;20.67;80.31
71149;BME280;59072;42.144;25.200;2023-05-20T07:11:58;100291.00;;;20.98;81.10
71149;BME280;59072;42.144;25.200;2023-05-20T07:14:24;100301.06;;;21.32;79.64
71149;BME280;59072;42.144;25.200;2023-05-20T07:16:49;100293.09;;;21.45;77.93
71149;BME280;59072;42.144;25.200;2023-05-20T07:19:15;100301.84;;;21.66;75.86
71149;BME280;59072;42.144;25.200;2023-05-20T07:21:40;100298.94;;;21.58;74.76
71149;BME280;59072;42.144;25.200;2023-05-20T07:24:06;100310.97;;;21.76;73.05
71149;BME280;59072;42.144;25.200;2023-05-20T07:26:31;100321.38;;;22.17;72.87
71149;BME280;59072;42.144;25.200;2023-05-20T07:29:00;100311.00;;;22.24;73.73
71149;BME280;59072;42.144;25.200;2023-05-20T07:31:26;100313.53;;;22.39;65.78
71149;BME280;59072;42.144;25.200;2023-05-20T07:33:51;100306.94;;;22.21;70.21
71149;BME280;59072;42.144;25.200;2023-05-20T07:36:16;100306.47;;;22.38;63.16
71149;BME280;59072;42.144;25.200;2023-05-20T07:38:42;100304.50;;;22.44;57.49
71149;BME280;59072;42.144;25.200;2023-05-20T07:41:07;100298.47;;;22.47;58.61
71149;BME280;59072;42.144;25.200;2023-05-20T07:43:33;100301.56;;;22.78;60.96
71149;BME280;59072;42.144;25.200;2023-05-20T07:45:58;100298.25;;;22.81;55.43
71149;BME280;59072;42.144;25.200;2023-05-20T07:48:24;100302.50;;;23.06;56.70
71149;BME280;59072;42.144;25.200;2023-05-20T07:50:49;100305.84;;;23.36;55.60
71149;BME280;59072;42.144;25.200;2023-05-20T07:53:14;100307.94;;;23.25;56.83
71149;BME280;59072;42.144;25.200;2023-05-20T07:55:40;100305.41;;;23.29;57.48
71149;BME280;59072;42.144;25.200;2023-05-20T07:58:05;100293.81;;;23.84;55.86
71149;BME280;59072;42.144;25.200;2023-05-20T08:00:31;100289.25;;;23.65;53.76
71149;BME280;59072;42.144;25.200;2023-05-20T08:02:56;100295.50;;;23.52;53.97
71149;BME280;59072;42.144;25.200;2023-05-20T08:05:22;100301.75;;;23.66;54.42
71149;BME280;59072;42.144;25.200;2023-05-20T08:07:47;100295.75;;;23.97;52.52
71149;BME280;59072;42.144;25.200;2023-05-20T08:10:13;100298.34;;;23.75;50.86
71149;BME280;59072;42.144;25.200;2023-05-20T08:12:39;100306.97;;;23.49;52.27
71149;BME280;59072;42.144;25.200;2023-05-20T08:15:05;100287.69;;;23.78;51.67
71149;BME280;59072;42.144;25.200;2023-05-20T08:17:31;100295.84;;;24.20;51.32
71149;BME280;59072;42.144;25.200;2023-05-20T08:19:57;100299.34;;;24.48;50.86
71149;BME280;59072;42.144;25.200;2023-05-20T08:22:22;100304.22;;;24.10;49.13
71149;BME280;59072;42.144;25.200;2023-05-20T08:24:47;100297.97;;;24.09;47.09
71149;BME280;59072;42.144;25.200;2023-05-20T08:27:13;100292.13;;;23.88;48.58
71149;BME280;59072;42.144;25.200;2023-05-20T08:29:38;100301.41;;;23.87;47.47
71149;BME280;59072;42.144;25.200;2023-05-20T08:32:04;100290.31;;;23.97;45.04
71149;BME280;59072;42.144;25.200;2023-05-20T08:34:30;100285.44;;;23.94;45.83
71149;BME280;59072;42.144;25.200;2023-05-20T08:36:55;100298.53;;;23.64;43.98
71149;BME280;59072;42.144;25.200;2023-05-20T08:39:22;100300.34;;;23.69;47.13
71149;BME280;59072;42.144;25.200;2023-05-20T08:41:47;100300.44;;;23.50;47.16
71149;BME280;59072;42.144;25.200;2023-05-20T08:44:13;100296.44;;;23.29;48.67
71149;BME280;59072;42.144;25.200;2023-05-20T08:46:39;100304.72;;;23.37;47.71
71149;BME280;59072;42.144;25.200;2023-05-20T08:49:05;100295.75;;;23.37;48.45
71149;BME280;59072;42.144;25.200;2023-05-20T08:51:32;100299.28;;;23.37;48.20
71149;BME280;59072;42.144;25.200;2023-05-20T08:54:01;100294.47;;;23.48;48.70
71149;BME280;59072;42.144;25.200;2023-05-20T08:56:27;100291.00;;;23.29;51.03
71149;BME280;59072;42.144;25.200;2023-05-20T08:58:55;100300.28;;;23.41;50.86
71149;BME280;59072;42.144;25.200;2023-05-20T09:01:23;100283.13;;;22.75;51.90
71149;BME280;59072;42.144;25.200;2023-05-20T09:03:51;100299.22;;;23.10;53.13
71149;BME280;59072;42.144;25.200;2023-05-20T09:06:17;100288.03;;;23.44;50.93
71149;BME280;59072;42.144;25.200;2023-05-20T09:08:48;100295.25;;;23.95;48.61
71149;BME280;59072;42.144;25.200;2023-05-20T09:11:14;100287.88;;;24.10;47.14
71149;BME280;59072;42.144;25.200;2023-05-20T09:13:39;100277.94;;;24.41;48.55
71149;BME280;59072;42.144;25.200;2023-05-20T09:16:05;100279.22;;;24.58;47.05
71149;BME280;59072;42.144;25.200;2023-05-20T09:18:31;100283.50;;;25.32;45.44
71149;BME280;59072;42.144;25.200;2023-05-20T09:20:57;100284.66;;;25.39;43.86
71149;BME280;59072;42.144;25.200;2023-05-20T09:23:22;100282.88;;;26.23;42.32
71149;BME280;59072;42.144;25.200;2023-05-20T09:25:50;100283.81;;;26.01;40.80
71149;BME280;59072;42.144;25.200;2023-05-20T09:28:22;100279.63;;;25.95;41.83
71149;BME280;59072;42.144;25.200;2023-05-20T09:30:57;100275.16;;;26.17;41.97
71149;BME280;59072;42.144;25.200;2023-05-20T09:33:29;100282.28;;;26.35;41.74
71149;BME280;59072;42.144;25.200;2023-05-20T09:36:09;100268.69;;;25.95;39.83
71149;BME280;59072;42.144;25.200;2023-05-20T09:38:38;100289.00;;;26.29;41.53
71149;BME280;59072;42.144;25.200;2023-05-20T09:41:10;100270.69;;;25.41;37.84
71149;BME280;59072;42.144;25.200;2023-05-20T09:43:36;100282.31;;;25.55;38.53
71149;BME280;59072;42.144;25.200;2023-05-20T09:46:03;100282.97;;;24.84;40.13
71149;BME280;59072;42.144;25.200;2023-05-20T09:48:28;100287.44;;;24.44;40.54
71149;BME280;59072;42.144;25.200;2023-05-20T09:50:56;100288.75;;;24.19;40.99
71149;BME280;59072;42.144;25.200;2023-05-20T09:53:24;100285.66;;;23.84;43.12
71149;BME280;59072;42.144;25.200;2023-05-20T09:55:51;100284.66;;;24.08;42.90
71149;BME280;59072;42.144;25.200;2023-05-20T09:58:18;100281.72;;;24.18;42.38
71149;BME280;59072;42.144;25.200;2023-05-20T10:00:44;100277.72;;;24.52;42.72
71149;BME280;59072;42.144;25.200;2023-05-20T10:03:10;100278.56;;;24.24;44.08
71149;BME280;59072;42.144;25.200;2023-05-20T10:05:40;100268.97;;;24.27;42.76
71149;BME280;59072;42.144;25.200;2023-05-20T10:11:14;100288.81;;;23.91;43.61
71149;BME280;59072;42.144;25.200;2023-05-20T10:22:00;100269.56;;;23.08;45.98
71149;BME280;59072;42.144;25.200;2023-05-20T10:24:33;100269.97;;;23.01;46.56
71149;BME280;59072;42.144;25.200;2023-05-20T10:27:06;100267.84;;;22.79;46.42
71149;BME280;59072;42.144;25.200;2023-05-20T10:29:51;100270.19;;;22.67;47.70
71149;BME280;59072;42.144;25.200;2023-05-20T10:32:28;100256.91;;;22.46;48.93
71149;BME280;59072;42.144;25.200;2023-05-20T10:35:03;100261.25;;;22.48;50.10
71149;BME280;59072;42.144;25.200;2023-05-20T10:37:39;100269.22;;;22.39;49.91
71149;BME280;59072;42.144;25.200;2023-05-20T10:40:10;100259.19;;;22.39;51.45
71149;BME280;59072;42.144;25.200;2023-05-20T10:42:37;100263.72;;;22.63;51.65
71149;BME280;59072;42.144;25.200;2023-05-20T10:45:05;100255.81;;;22.48;51.87
71149;BME280;59072;42.144;25.200;2023-05-20T10:47:31;100250.66;;;22.46;51.68
71149;BME280;59072;42.144;25.200;2023-05-20T10:49:57;100253.72;;;22.77;50.63
71149;BME280;59072;42.144;25.200;2023-05-20T10:52:23;100246.53;;;22.86;51.40
71149;BME280;59072;42.144;25.200;2023-05-20T10:57:17;100252.75;;;22.87;50.70
71149;BME280;59072;42.144;25.200;2023-05-20T10:59:43;100264.06;;;22.94;48.80
71149;BME280;59072;42.144;25.200;2023-05-20T11:02:09;100250.31;;;23.04;48.85
71149;BME280;59072;42.144;25.200;2023-05-20T11:04:36;100249.09;;;23.30;50.66
71149;BME280;59072;42.144;25.200;2023-05-20T11:07:02;100254.63;;;23.38;48.11
71149;BME280;59072;42.144;25.200;2023-05-20T11:09:28;100251.75;;;23.76;46.04
71149;BME280;59072;42.144;25.200;2023-05-20T11:11:55;100244.59;;;23.94;45.80
71149;BME280;59072;42.144;25.200;2023-05-20T11:14:21;100232.28;;;24.61;44.89
71149;BME280;59072;42.144;25.200;2023-05-20T11:16:50;100230.72;;;25.45;42.95
71149;BME280;59072;42.144;25.200;2023-05-20T11:19:16;100226.50;;;25.79;41.57
71149;BME280;59072;42.144;25.200;2023-05-20T11:21:46;100237.72;;;25.69;39.76
71149;BME280;59072;42.144;25.200;2023-05-20T11:24:12;100233.72;;;25.35;40.39
71149;BME280;59072;42.144;25.200;2023-05-20T11:26:38;100227.50;;;25.43;41.37
71149;BME280;59072;42.144;25.200;2023-05-20T11:29:04;100231.97;;;25.39;39.93
71149;BME280;59072;42.144;25.200;2023-05-20T11:31:30;100228.69;;;25.59;40.10
71149;BME280;59072;42.144;25.200;2023-05-20T11:33:59;100223.94;;;25.34;39.27
71149;BME280;59072;42.144;25.200;2023-05-20T11:36:26;100212.59;;;25.18;39.84
71149;BME280;59072;42.144;25.200;2023-05-20T11:38:53;100222.22;;;24.93;40.67
71149;BME280;59072;42.144;25.200;2023-05-20T11:41:23;100218.53;;;25.51;39.52
71149;BME280;59072;42.144;25.200;2023-05-20T11:43:55;100214.41;;;26.29;39.63
71149;BME280;59072;42.144;25.200;2023-05-20T11:46:21;100199.59;;;26.12;38.22
71149;BME280;59072;42.144;25.200;2023-05-20T11:48:56;100221.28;;;25.60;36.53
71149;BME280;59072;42.144;25.200;2023-05-20T11:51:30;100197.28;;;25.88;37.55
71149;BME280;59072;42.144;25.200;2023-05-20T11:54:03;100204.88;;;25.51;37.63
71149;BME280;59072;42.144;25.200;2023-05-20T11:56:33;100215.38;;;26.24;38.37
71149;BME280;59072;42.144;25.200;2023-05-20T11:58:59;100208.94;;;26.20;38.69
71149;BME280;59072;42.144;25.200;2023-05-20T12:01:25;100212.25;;;25.91;37.56
71149;BME280;59072;42.144;25.200;2023-05-20T12:03:52;100214.44;;;25.09;38.41
71149;BME280;59072;42.144;25.200;2023-05-20T12:06:18;100195.94;;;24.52;39.98
71149;BME280;59072;42.144;25.200;2023-05-20T12:08:44;100207.81;;;23.83;41.18
71149;BME280;59072;42.144;25.200;2023-05-20T12:11:09;100206.16;;;23.40;43.63
71149;BME280;59072;42.144;25.200;2023-05-20T12:13:35;100210.09;;;23.62;43.90
71149;BME280;59072;42.144;25.200;2023-05-20T12:16:00;100210.16;;;23.15;42.28
71149;BME280;59072;42.144;25.200;2023-05-20T12:18:26;100206.94;;;23.13;43.04
71149;BME280;59072;42.144;25.200;2023-05-20T12:20:51;100210.94;;;23.02;43.29
71149;BME280;59072;42.144;25.200;2023-05-20T12:23:17;100206.06;;;22.99;44.07
71149;BME280;59072;42.144;25.200;2023-05-20T12:25:43;100204.53;;;22.93;44.60
71149;BME280;59072;42.144;25.200;2023-05-20T12:28:09;100211.63;;;22.75;47.35
71149;BME280;59072;42.144;25.200;2023-05-20T12:30:35;100209.13;;;22.59;46.96
71149;BME280;59072;42.144;25.200;2023-05-20T12:33:00;100208.44;;;22.54;45.24
71149;BME280;59072;42.144;25.200;2023-05-20T12:35:40;100202.75;;;22.31;46.17
71149;BME280;59072;42.144;25.200;2023-05-20T12:38:06;100209.78;;;22.37;46.87
71149;BME280;59072;42.144;25.200;2023-05-20T12:40:33;100207.09;;;22.51;46.39
71149;BME280;59072;42.144;25.200;2023-05-20T12:43:02;100182.25;;;22.20;46.80
71149;BME280;59072;42.144;25.200;2023-05-20T12:45:28;100196.97;;;22.38;46.03